Time;durP1;ratioP1;P1;durP2;ratioP2;P2;SDS_P1;SDS_P2;PMS_P1;PMS_P2;Temp;Humidity;BMP_temperature;BMP_pressure;BME280_temperature;BME280_humidity;BME280_pressure;Samples;Min_cycle;Max_cycle;Signal;HPM_P1;HPM_P2
2023/05/15 00:02:01;;;;;;;10.63;7.28;;;10.80;99.90;;;;;;7329488;32;20744;-56
2023/05/15 00:06:03;;;;;;;8.05;6.93;;;10.70;99.90;;;;;;7333210;32;20172;-56
2023/05/15 00:10:06;;;;;;;11.52;7.05;;;10.70;99.90;;;;;;7327055;32;20183;-56
2023/05/15 00:14:08;;;;;;;9.15;6.82;;;10.70;99.90;;;;;;7330919;32;20103;-57
2023/05/15 00:18:09;;;;;;;11.30;7.85;;;10.60;99.90;;;;;;7327094;32;20135;-57
2023/05/15 00:22:11;;;;;;;9.10;7.78;;;10.50;99.90;;;;;;7326330;32;20245;-56
2023/05/15 00:26:14;;;;;;;9.25;6.90;;;10.50;99.90;;;;;;7329233;32;20214;-56
2023/05/15 00:30:16;;;;;;;8.60;7.47;;;10.40;99.90;;;;;;7329840;32;20753;-56
2023/05/15 00:34:18;;;;;;;12.23;7.93;;;10.40;99.90;;;;;;7329519;32;20207;-58
2023/05/15 00:38:20;;;;;;;11.23;8.05;;;10.40;99.90;;;;;;7336974;32;20224;-57
2023/05/15 00:42:23;;;;;;;8.93;7.10;;;10.30;99.90;;;;;;7332112;32;20126;-57
2023/05/15 00:46:26;;;;;;;9.65;6.95;;;10.30;99.90;;;;;;7335106;32;20152;-57
2023/05/15 00:50:29;;;;;;;8.75;7.85;;;10.30;99.90;;;;;;7327055;32;20587;-58
2023/05/15 00:54:31;;;;;;;10.27;8.05;;;10.20;99.90;;;;;;7316620;32;20121;-57
2023/05/15 00:58:33;;;;;;;12.73;8.20;;;10.20;99.90;;;;;;7334223;32;20183;-57
2023/05/15 01:02:37;;;;;;;11.70;8.20;;;10.20;99.90;;;;;;7327693;32;20118;-57
2023/05/15 01:06:39;;;;;;;9.10;8.02;;;10.20;99.90;;;;;;7329579;32;20254;-57
2023/05/15 01:10:42;;;;;;;12.37;9.35;;;10.10;99.90;;;;;;7328966;32;20134;-57
2023/05/15 01:14:44;;;;;;;11.45;9.52;;;10.20;99.90;;;;;;7336715;32;20155;-57
2023/05/15 01:18:46;;;;;;;9.73;8.73;;;10.20;99.90;;;;;;7322392;32;20140;-57
2023/05/15 01:23:19;;;;;;;10.82;9.45;;;10.30;99.90;;;;;;7329422;32;20103;-58
2023/05/15 01:27:48;;;;;;;12.55;9.55;;;10.40;99.90;;;;;;7320254;32;20162;-57
2023/05/15 01:31:56;;;;;;;10.77;9.40;;;10.50;99.90;;;;;;7327164;32;20172;-58
2023/05/15 01:36:00;;;;;;;11.15;9.90;;;10.60;99.90;;;;;;7324614;32;20260;-58
2023/05/15 01:40:04;;;;;;;11.60;10.40;;;10.60;99.90;;;;;;7329426;32;20112;-57
2023/05/15 01:44:25;;;;;;;14.82;10.60;;;10.70;99.90;;;;;;7324886;32;20173;-56
2023/05/15 01:48:28;;;;;;;10.55;9.50;;;10.80;99.90;;;;;;7327854;32;20217;-57
2023/05/15 01:52:35;;;;;;;14.23;10.02;;;10.90;99.90;;;;;;7328676;32;20126;-57
2023/05/15 01:56:39;;;;;;;15.38;10.45;;;10.90;99.90;;;;;;7322204;32;20216;-57
2023/05/15 02:00:41;;;;;;;12.48;9.85;;;10.90;99.90;;;;;;7329655;32;20108;-57
2023/05/15 02:04:44;;;;;;;11.30;10.20;;;11.00;99.90;;;;;;7336434;32;20107;-57
2023/05/15 02:08:46;;;;;;;11.27;10.18;;;11.10;99.90;;;;;;7339013;32;20099;-57
2023/05/15 02:12:49;;;;;;;10.65;9.55;;;11.10;99.90;;;;;;7336436;32;20222;-57
2023/05/15 02:16:51;;;;;;;16.12;14.18;;;11.30;99.90;;;;;;7336736;32;20103;-57
2023/05/15 02:20:53;;;;;;;28.42;20.67;;;11.40;99.90;;;;;;7333636;32;20222;-57
2023/05/15 02:24:54;;;;;;;32.53;24.63;;;11.60;99.90;;;;;;7330543;32;20324;-56
2023/05/15 02:29:16;;;;;;;30.17;23.90;;;11.80;99.90;;;;;;7334755;32;20178;-57
2023/05/15 02:34:00;;;;;;;37.08;25.77;;;12.00;99.90;;;;;;7318426;32;20135;-56
2023/05/15 02:38:08;;;;;;;36.00;26.02;;;12.20;99.90;;;;;;7339169;32;20119;-57
2023/05/15 02:42:13;;;;;;;38.67;28.35;;;12.20;99.90;;;;;;7331503;32;20124;-57
2023/05/15 02:46:15;;;;;;;39.28;28.80;;;12.30;99.90;;;;;;7343287;32;20113;-57
2023/05/15 02:50:17;;;;;;;36.08;28.42;;;12.40;99.90;;;;;;7337105;32;20524;-57
2023/05/15 02:54:20;;;;;;;40.63;30.62;;;12.40;99.90;;;;;;7336106;32;20107;-58
2023/05/15 02:58:22;;;;;;;42.53;29.27;;;12.40;99.90;;;;;;7337297;32;20171;-57
2023/05/15 03:02:23;;;;;;;38.88;28.48;;;12.40;99.90;;;;;;7328843;32;20441;-57
2023/05/15 03:06:25;;;;;;;32.85;25.52;;;12.50;99.90;;;;;;7334174;32;20824;-57
2023/05/15 03:10:27;;;;;;;34.30;25.62;;;12.50;99.90;;;;;;7339407;32;20227;-57
2023/05/15 03:14:28;;;;;;;33.45;24.17;;;12.60;99.90;;;;;;7334909;32;20149;-57
2023/05/15 03:18:30;;;;;;;29.35;25.60;;;12.50;99.90;;;;;;7334207;32;20481;-58
2023/05/15 03:22:32;;;;;;;32.67;24.20;;;12.40;99.90;;;;;;7328960;32;20116;-57
2023/05/15 03:26:33;;;;;;;33.40;24.75;;;12.50;99.90;;;;;;7312680;32;20122;-57
2023/05/15 03:30:35;;;;;;;32.13;24.98;;;12.50;99.90;;;;;;7328329;32;20198;-57
2023/05/15 03:34:37;;;;;;;34.50;25.98;;;12.40;99.90;;;;;;7331616;32;20638;-57
2023/05/15 03:38:43;;;;;;;32.97;26.80;;;12.30;99.90;;;;;;7331289;32;20485;-57
2023/05/15 03:42:44;;;;;;;42.78;29.12;;;12.40;99.90;;;;;;7331899;32;20168;-57
2023/05/15 03:46:46;;;;;;;36.92;28.60;;;12.30;99.90;;;;;;7334932;32;20103;-57
2023/05/15 03:50:48;;;;;;;37.45;28.12;;;12.30;99.90;;;;;;7329724;32;20125;-58
2023/05/15 03:54:50;;;;;;;42.10;29.60;;;12.30;99.90;;;;;;7329082;32;20125;-58
2023/05/15 03:58:52;;;;;;;34.65;27.45;;;12.30;99.90;;;;;;7332898;32;20221;-56
2023/05/15 04:02:54;;;;;;;41.05;27.95;;;12.30;99.90;;;;;;7334133;32;22285;-57
2023/05/15 04:06:56;;;;;;;34.25;28.33;;;12.30;99.90;;;;;;7327721;32;20207;-56
2023/05/15 04:10:57;;;;;;;41.25;29.25;;;12.20;99.90;;;;;;7330330;32;20236;-57
2023/05/15 04:15:20;;;;;;;44.20;30.48;;;12.20;99.90;;;;;;7327412;32;20191;-57
2023/05/15 04:19:22;;;;;;;60.85;40.12;;;12.10;99.90;;;;;;7327027;32;20095;-57
2023/05/15 04:23:24;;;;;;;69.03;43.45;;;12.20;99.90;;;;;;7331190;32;20115;-56
2023/05/15 04:27:26;;;;;;;72.00;46.28;;;12.20;99.90;;;;;;7327317;32;20096;-57
2023/05/15 04:31:28;;;;;;;73.62;48.15;;;12.10;99.90;;;;;;7329987;32;20099;-56
2023/05/15 04:35:30;;;;;;;74.03;48.28;;;12.10;99.90;;;;;;7334863;32;20150;-58
2023/05/15 04:39:32;;;;;;;89.37;55.92;;;12.10;99.90;;;;;;7327628;32;20145;-57
2023/05/15 04:43:33;;;;;;;89.65;55.45;;;12.20;99.90;;;;;;7332775;32;20537;-57
2023/05/15 04:47:35;;;;;;;91.78;54.88;;;12.10;99.90;;;;;;7324315;32;20362;-58
2023/05/15 04:51:37;;;;;;;92.12;56.37;;;11.90;99.90;;;;;;7325150;32;20231;-58
2023/05/15 04:55:39;;;;;;;111.18;63.28;;;12.00;99.90;;;;;;7329006;32;20157;-58
2023/05/15 04:59:41;;;;;;;116.55;67.60;;;12.10;99.90;;;;;;7330121;32;20099;-57
2023/05/15 05:03:42;;;;;;;114.40;65.50;;;12.10;99.90;;;;;;7326272;32;20099;-57
2023/05/15 05:07:45;;;;;;;112.75;66.12;;;12.00;99.90;;;;;;7329763;32;20126;-58
2023/05/15 05:11:47;;;;;;;111.12;64.03;;;11.90;99.90;;;;;;7327385;32;20096;-58
2023/05/15 05:15:48;;;;;;;109.68;65.43;;;12.00;99.90;;;;;;7328077;32;20328;-58
2023/05/15 05:19:50;;;;;;;109.45;66.00;;;12.00;99.90;;;;;;7325052;32;20203;-57
2023/05/15 05:23:52;;;;;;;105.10;64.82;;;12.10;99.90;;;;;;7326424;32;20100;-57
2023/05/15 05:27:53;;;;;;;110.93;68.47;;;12.10;99.90;;;;;;7328837;32;20649;-57
2023/05/15 05:31:56;;;;;;;112.88;65.93;;;12.10;99.90;;;;;;7328439;32;20190;-58
2023/05/15 05:35:58;;;;;;;95.32;54.03;;;12.20;99.90;;;;;;7326210;32;20672;-57
2023/05/15 05:39:59;;;;;;;76.18;48.22;;;12.20;99.90;;;;;;7332004;32;20107;-56
2023/05/15 05:44:01;;;;;;;76.30;46.90;;;12.20;99.90;;;;;;7327284;32;20535;-58
2023/05/15 05:48:03;;;;;;;88.90;51.50;;;12.30;99.90;;;;;;7325710;32;20562;-57
2023/05/15 05:52:06;;;;;;;88.65;51.50;;;12.20;99.90;;;;;;7334681;32;20495;-57
2023/05/15 05:56:09;;;;;;;97.18;55.28;;;12.20;99.90;;;;;;7323708;32;20662;-63
2023/05/15 06:00:11;;;;;;;103.87;56.53;;;12.30;99.90;;;;;;7326305;32;20150;-57
2023/05/15 06:04:14;;;;;;;127.40;69.70;;;12.20;99.90;;;;;;7325707;32;20219;-61
2023/05/15 06:08:19;;;;;;;126.40;69.10;;;12.20;99.90;;;;;;7320738;32;20750;-57
2023/05/15 06:12:21;;;;;;;115.70;69.45;;;12.20;99.90;;;;;;7323571;32;20100;-57
2023/05/15 06:16:23;;;;;;;114.82;67.85;;;12.20;99.90;;;;;;7329098;32;20262;-57
2023/05/15 06:20:26;;;;;;;103.80;63.85;;;12.30;99.90;;;;;;7326444;32;20905;-59
2023/05/15 06:24:28;;;;;;;102.70;63.00;;;12.30;99.90;;;;;;7321763;32;20187;-61
2023/05/15 06:28:29;;;;;;;94.00;59.10;;;12.40;99.90;;;;;;7322746;32;20088;-57
2023/05/15 06:32:32;;;;;;;79.40;49.78;;;12.60;99.90;;;;;;7326812;32;20121;-58
2023/05/15 06:36:36;;;;;;;66.95;46.25;;;12.60;99.90;;;;;;7323249;32;20182;-57
2023/05/15 06:40:37;;;;;;;70.28;48.45;;;12.70;99.90;;;;;;7324605;32;20761;-58
2023/05/15 06:44:39;;;;;;;78.18;50.95;;;12.70;99.90;;;;;;7323663;32;20539;-58
2023/05/15 06:48:41;;;;;;;99.40;61.92;;;12.90;99.90;;;;;;7322739;32;20142;-58
2023/05/15 06:52:43;;;;;;;93.05;60.22;;;13.00;99.90;;;;;;7330565;32;20100;-57
2023/05/15 06:56:44;;;;;;;92.20;55.75;;;12.90;99.90;;;;;;7328825;32;20547;-56
2023/05/15 07:00:46;;;;;;;66.30;45.28;;;12.90;99.90;;;;;;7330729;32;20898;-57
2023/05/15 07:04:48;;;;;;;57.85;40.30;;;12.90;99.90;;;;;;7327074;32;20103;-58
2023/05/15 07:08:50;;;;;;;38.55;31.23;;;12.80;99.90;;;;;;7329907;32;20222;-57
2023/05/15 07:12:51;;;;;;;37.88;29.50;;;12.80;99.90;;;;;;7338222;32;20180;-58
2023/05/15 07:16:53;;;;;;;36.90;28.58;;;12.70;99.90;;;;;;7331768;32;20752;-58
2023/05/15 07:20:55;;;;;;;37.85;31.10;;;12.70;99.90;;;;;;7333264;32;20095;-57
2023/05/15 07:24:56;;;;;;;40.50;31.25;;;12.80;99.90;;;;;;7333173;32;20200;-57
2023/05/15 07:28:58;;;;;;;42.97;32.33;;;12.80;99.90;;;;;;7334680;32;20099;-59
2023/05/15 07:33:00;;;;;;;38.65;32.63;;;13.10;99.90;;;;;;7329566;32;20231;-58
2023/05/15 07:37:02;;;;;;;40.60;32.58;;;13.30;99.90;;;;;;7335098;32;20183;-59
2023/05/15 07:41:04;;;;;;;33.50;28.08;;;13.60;99.90;;;;;;7326523;32;20551;-61
2023/05/15 07:45:06;;;;;;;35.40;29.85;;;13.70;99.90;;;;;;7330360;32;20123;-58
2023/05/15 07:49:08;;;;;;;36.08;29.35;;;13.80;99.90;;;;;;7326592;32;20100;-58
2023/05/15 07:53:10;;;;;;;36.72;31.20;;;13.80;99.90;;;;;;7330334;32;20292;-58
2023/05/15 07:57:11;;;;;;;43.60;35.45;;;14.10;99.90;;;;;;7331839;32;20100;-59
2023/05/15 08:01:13;;;;;;;45.47;35.15;;;14.10;99.90;;;;;;7333106;32;20179;-64
2023/05/15 08:05:15;;;;;;;38.00;31.25;;;14.30;99.90;;;;;;7326248;32;20125;-59
2023/05/15 08:09:17;;;;;;;38.42;32.80;;;14.50;99.90;;;;;;7330664;32;20174;-60
2023/05/15 08:13:18;;;;;;;36.33;31.37;;;14.80;99.90;;;;;;7331355;32;20115;-61
2023/05/15 08:17:21;;;;;;;30.73;26.80;;;14.90;99.90;;;;;;7333103;32;20130;-58
2023/05/15 08:21:22;;;;;;;29.73;23.17;;;14.90;99.90;;;;;;7330398;32;20119;-57
2023/05/15 08:25:24;;;;;;;31.87;26.42;;;15.00;99.90;;;;;;7332247;32;20099;-58
2023/05/15 08:29:26;;;;;;;27.50;23.73;;;15.20;99.90;;;;;;7334191;32;20194;-60
2023/05/15 08:33:28;;;;;;;27.10;23.98;;;15.70;99.90;;;;;;7327584;32;20272;-59
2023/05/15 08:37:30;;;;;;;33.25;23.12;;;16.40;99.90;;;;;;7325571;32;20793;-59
2023/05/15 08:41:36;;;;;;;30.67;24.52;;;17.00;99.90;;;;;;7323058;32;20099;-58
2023/05/15 08:45:42;;;;;;;26.83;22.05;;;17.90;99.90;;;;;;7326315;32;20527;-59
2023/05/15 08:50:03;;;;;;;22.50;19.52;;;18.40;99.90;;;;;;7328935;32;20123;-60
2023/05/15 08:54:06;;;;;;;29.25;19.85;;;18.50;99.90;;;;;;7324042;32;20168;-59
2023/05/15 08:58:08;;;;;;;22.08;19.35;;;18.60;99.90;;;;;;7325658;32;20231;-58
2023/05/15 09:02:09;;;;;;;22.73;19.55;;;18.80;99.90;;;;;;7330264;32;20146;-61
2023/05/15 09:06:12;;;;;;;24.35;19.00;;;19.40;99.90;;;;;;7328438;32;20567;-57
2023/05/15 09:10:15;;;;;;;26.17;19.08;;;19.20;99.90;;;;;;7310521;32;20126;-57
2023/05/15 09:14:16;;;;;;;23.48;17.73;;;19.40;99.90;;;;;;7312867;32;20198;-57
2023/05/15 09:18:19;;;;;;;24.25;17.83;;;19.00;99.90;;;;;;7302644;32;20146;-58
2023/05/15 09:22:23;;;;;;;26.70;18.48;;;18.60;99.90;;;;;;7329676;32;21530;-60
2023/05/15 09:26:24;;;;;;;21.80;18.12;;;18.90;99.90;;;;;;7313250;32;20104;-58
2023/05/15 09:30:29;;;;;;;20.75;16.83;;;19.50;99.90;;;;;;7316242;32;20303;-58
2023/05/15 09:34:34;;;;;;;23.40;17.40;;;19.70;99.90;;;;;;7312428;32;20183;-57
2023/05/15 09:38:46;;;;;;;24.87;16.48;;;20.30;99.90;;;;;;7331859;32;20246;-58
2023/05/15 09:42:51;;;;;;;17.98;16.05;;;20.90;99.90;;;;;;7316084;32;20114;-57
2023/05/15 09:46:53;;;;;;;24.25;17.85;;;21.30;99.90;;;;;;7330284;32;20163;-57
2023/05/15 09:50:55;;;;;;;18.95;14.00;;;21.30;99.90;;;;;;7332500;32;20131;-58
2023/05/15 09:54:57;;;;;;;20.62;14.77;;;21.50;99.90;;;;;;7326052;32;20328;-62
2023/05/15 09:58:59;;;;;;;18.50;15.02;;;21.10;99.90;;;;;;7335786;32;20111;-58
2023/05/15 10:03:02;;;;;;;21.08;14.90;;;21.30;99.90;;;;;;7329198;32;20532;-60
2023/05/15 10:07:08;;;;;;;17.35;13.55;;;21.10;99.90;;;;;;7332285;32;20551;-57
2023/05/15 10:11:10;;;;;;;14.82;10.70;;;21.40;99.90;;;;;;7329927;32;20135;-57
2023/05/15 10:15:13;;;;;;;13.75;8.43;;;21.00;99.90;;;;;;7324476;32;20175;-57
2023/05/15 10:19:16;;;;;;;17.77;10.18;;;21.50;99.90;;;;;;7322526;32;20103;-56
2023/05/15 10:23:21;;;;;;;16.58;11.63;;;21.10;99.90;;;;;;7327365;32;20510;-61
2023/05/15 10:27:23;;;;;;;16.65;10.63;;;21.20;99.90;;;;;;7325416;32;20104;-57
2023/05/15 10:31:26;;;;;;;19.20;13.05;;;21.40;99.90;;;;;;7322824;32;20150;-54
2023/05/15 10:35:27;;;;;;;18.27;12.05;;;21.60;99.90;;;;;;7329468;32;20145;-54
2023/05/15 10:39:30;;;;;;;10.40;8.90;;;21.60;99.90;;;;;;7333419;32;20238;-56
2023/05/15 10:43:34;;;;;;;17.75;12.60;;;21.60;99.60;;;;;;7336256;32;20103;-58
2023/05/15 10:47:38;;;;;;;15.55;11.45;;;21.30;99.90;;;;;;7326372;32;20115;-59
2023/05/15 10:51:41;;;;;;;14.02;11.88;;;21.50;99.90;;;;;;7336383;32;20331;-57
2023/05/15 10:55:44;;;;;;;20.37;14.80;;;21.50;99.90;;;;;;7324918;32;20526;-58
2023/05/15 10:59:46;;;;;;;19.67;14.57;;;21.40;99.90;;;;;;7331610;32;20179;-54
2023/05/15 11:03:48;;;;;;;28.77;23.45;;;21.50;99.90;;;;;;7327314;32;20277;-61
2023/05/15 11:08:14;;;;;;;153.80;119.87;;;21.70;99.90;;;;;;7330775;32;20127;-58
2023/05/15 11:12:16;;;;;;;190.95;171.37;;;22.10;99.90;;;;;;7333285;32;20166;-57
2023/05/15 11:16:53;;;;;;;15.60;12.32;;;22.70;99.90;;;;;;7316082;32;20604;-59
2023/05/15 11:20:57;;;;;;;15.27;12.90;;;21.60;99.90;;;;;;7291243;32;20104;-59
2023/05/15 11:25:10;;;;;;;18.08;11.85;;;21.20;99.60;;;;;;7327395;32;20162;-58
2023/05/15 11:29:18;;;;;;;18.17;12.23;;;20.80;99.90;;;;;;7333365;32;20100;-58
2023/05/15 11:33:20;;;;;;;14.90;11.70;;;20.70;99.90;;;;;;7334759;32;20249;-60
2023/05/15 11:37:23;;;;;;;17.98;12.07;;;20.90;99.90;;;;;;7336807;32;20122;-57
2023/05/15 11:41:30;;;;;;;15.18;11.23;;;21.20;98.90;;;;;;7332019;32;20115;-58
2023/05/15 11:45:35;;;;;;;15.70;10.65;;;20.90;98.50;;;;;;7329873;32;20191;-57
2023/05/15 11:49:38;;;;;;;11.45;10.10;;;21.10;99.90;;;;;;7334257;32;20194;-56
2023/05/15 11:53:40;;;;;;;11.88;10.20;;;21.70;99.50;;;;;;7331295;32;20251;-56
2023/05/15 11:57:41;;;;;;;15.10;11.07;;;21.50;96.40;;;;;;7325560;32;20111;-56
2023/05/15 12:01:47;;;;;;;16.05;13.02;;;21.90;96.40;;;;;;7316957;32;20119;-56
2023/05/15 12:05:50;;;;;;;14.38;10.82;;;21.80;94.50;;;;;;7333770;32;20100;-57
2023/05/15 12:10:00;;;;;;;12.13;9.80;;;22.70;96.50;;;;;;7333617;32;20092;-56
2023/05/15 12:14:02;;;;;;;15.07;9.65;;;23.10;91.20;;;;;;7332284;32;20129;-55
2023/05/15 12:18:06;;;;;;;11.68;7.30;;;23.90;88.70;;;;;;7330158;32;20123;-61
2023/05/15 12:22:08;;;;;;;13.52;9.27;;;24.60;87.00;;;;;;7331863;32;20327;-56
2023/05/15 12:26:10;;;;;;;12.73;9.05;;;24.80;81.30;;;;;;7329405;32;20147;-55
2023/05/15 12:30:13;;;;;;;13.95;11.07;;;24.70;83.80;;;;;;7327249;32;20099;-56
2023/05/15 12:34:15;;;;;;;12.50;9.48;;;24.60;78.30;;;;;;7334154;32;20235;-55
2023/05/15 12:38:17;;;;;;;13.55;9.02;;;24.60;78.60;;;;;;7331134;32;20309;-58
2023/05/15 12:42:19;;;;;;;14.48;7.65;;;24.40;75.80;;;;;;7330375;32;20186;-57
2023/05/15 12:46:30;;;;;;;11.50;8.07;;;24.40;72.80;;;;;;7326145;32;20099;-58
2023/05/15 12:50:33;;;;;;;10.60;7.55;;;24.60;72.70;;;;;;7336995;32;20163;-57
2023/05/15 12:54:42;;;;;;;6.47;5.70;;;24.40;72.90;;;;;;7331511;32;20202;-56
2023/05/15 12:58:44;;;;;;;9.77;6.40;;;25.00;72.70;;;;;;7324328;32;20298;-59
2023/05/15 13:02:49;;;;;;;9.45;8.10;;;24.70;70.10;;;;;;7330404;32;20103;-57
2023/05/15 13:06:51;;;;;;;16.48;9.02;;;23.50;70.30;;;;;;7329168;32;20247;-57
2023/05/15 13:10:58;;;;;;;9.50;8.50;;;22.30;74.90;;;;;;7329029;32;20198;-57
2023/05/15 13:15:00;;;;;;;13.85;8.75;;;21.70;81.90;;;;;;7325624;32;20194;-56
2023/05/15 13:19:02;;;;;;;15.05;9.00;;;22.20;88.00;;;;;;7333280;32;20187;-61
2023/05/15 13:23:04;;;;;;;11.50;9.50;;;22.40;86.80;;;;;;7314057;32;20213;-56
2023/05/15 13:27:06;;;;;;;11.43;7.85;;;21.70;86.00;;;;;;7333219;32;20183;-57
2023/05/15 13:31:08;;;;;;;9.23;6.10;;;22.10;87.60;;;;;;7327677;32;20634;-58
2023/05/15 13:35:10;;;;;;;8.35;6.15;;;22.50;86.20;;;;;;7332343;32;20137;-58
2023/05/15 13:39:12;;;;;;;10.45;7.57;;;22.30;87.80;;;;;;7329330;32;20095;-60
2023/05/15 13:43:14;;;;;;;13.32;11.82;;;21.50;88.00;;;;;;7328845;32;20155;-58
2023/05/15 13:47:16;;;;;;;17.85;15.65;;;20.70;92.30;;;;;;7315969;32;20500;-58
2023/05/15 13:51:17;;;;;;;17.60;15.80;;;20.60;93.30;;;;;;7330411;32;20266;-58
2023/05/15 13:55:19;;;;;;;20.95;16.52;;;20.50;94.20;;;;;;7327291;32;20227;-58
2023/05/15 13:59:24;;;;;;;21.42;17.73;;;20.80;95.90;;;;;;7327613;32;20250;-63
2023/05/15 14:03:25;;;;;;;21.20;16.48;;;21.10;95.40;;;;;;7333441;32;20099;-57
2023/05/15 14:07:28;;;;;;;19.85;14.68;;;21.50;96.70;;;;;;7325085;32;20581;-63
2023/05/15 14:11:30;;;;;;;19.23;15.77;;;21.80;95.30;;;;;;7323394;32;20182;-57
2023/05/15 14:15:31;;;;;;;20.33;18.17;;;21.70;94.20;;;;;;7334734;32;20133;-57
2023/05/15 14:19:33;;;;;;;16.95;15.18;;;21.60;94.50;;;;;;7328731;32;20793;-58
2023/05/15 14:23:35;;;;;;;17.62;14.60;;;21.90;96.10;;;;;;7325253;32;20191;-58
2023/05/15 14:27:37;;;;;;;16.10;14.40;;;21.60;94.70;;;;;;7311720;32;20103;-61
2023/05/15 14:31:41;;;;;;;16.90;14.45;;;21.40;94.30;;;;;;7311592;32;20107;-58
2023/05/15 14:35:42;;;;;;;13.30;11.27;;;21.80;95.40;;;;;;7325551;32;20598;-58
2023/05/15 14:39:44;;;;;;;13.43;12.05;;;21.90;94.20;;;;;;7315800;32;20107;-57
2023/05/15 14:43:46;;;;;;;14.75;12.07;;;21.50;94.50;;;;;;7316347;32;20156;-57
2023/05/15 14:47:48;;;;;;;13.20;10.98;;;20.90;94.30;;;;;;7331538;32;20219;-57
2023/05/15 14:51:50;;;;;;;15.70;10.57;;;20.20;96.40;;;;;;7298475;32;20180;-58
2023/05/15 14:55:53;;;;;;;14.23;10.55;;;20.00;98.20;;;;;;7331618;32;20142;-60
2023/05/15 14:59:55;;;;;;;12.80;10.48;;;19.80;98.90;;;;;;7326604;32;22127;-57
2023/05/15 15:03:57;;;;;;;14.27;10.68;;;19.70;99.30;;;;;;7314678;32;20309;-57
2023/05/15 15:08:02;;;;;;;13.10;11.43;;;19.60;99.90;;;;;;7326125;32;20096;-57
2023/05/15 15:12:05;;;;;;;14.15;12.10;;;19.30;98.50;;;;;;7330931;32;20502;-57
2023/05/15 15:16:07;;;;;;;16.98;12.63;;;18.90;99.90;;;;;;7329654;32;20111;-60
2023/05/15 15:20:10;;;;;;;14.87;12.05;;;18.80;99.90;;;;;;7324898;32;20277;-58
2023/05/15 15:24:12;;;;;;;17.65;12.13;;;18.90;99.90;;;;;;7327374;32;20253;-58
2023/05/15 15:28:14;;;;;;;13.07;11.25;;;19.10;99.90;;;;;;7311848;32;20832;-57
2023/05/15 15:32:16;;;;;;;18.05;13.02;;;19.00;99.90;;;;;;7335038;32;20171;-58
2023/05/15 15:36:17;;;;;;;22.50;20.05;;;18.70;99.90;;;;;;7331086;32;20230;-64
2023/05/15 15:40:19;;;;;;;22.83;20.08;;;18.50;99.90;;;;;;7332913;32;20178;-57
2023/05/15 15:44:23;;;;;;;25.52;21.42;;;18.60;99.90;;;;;;7314900;32;20151;-60
2023/05/15 15:48:25;;;;;;;27.40;22.62;;;18.00;99.90;;;;;;7329997;32;20127;-57
2023/05/15 15:52:27;;;;;;;28.70;23.35;;;17.80;99.90;;;;;;7317760;32;20186;-58
2023/05/15 15:56:28;;;;;;;33.08;24.83;;;17.70;99.90;;;;;;7330353;32;20294;-57
2023/05/15 16:00:30;;;;;;;25.15;20.95;;;17.40;99.90;;;;;;7325382;32;20210;-59
2023/05/15 16:04:33;;;;;;;26.85;22.23;;;17.30;99.90;;;;;;7326294;32;20133;-61
2023/05/15 16:08:34;;;;;;;30.25;22.50;;;17.20;99.90;;;;;;7327807;32;20114;-58
2023/05/15 16:12:39;;;;;;;25.50;21.65;;;17.20;99.90;;;;;;7315821;32;20395;-57
2023/05/15 16:16:41;;;;;;;27.27;20.77;;;17.10;99.90;;;;;;7336467;32;20178;-57
2023/05/15 16:20:43;;;;;;;26.55;20.67;;;17.00;99.90;;;;;;7312144;32;21054;-57
2023/05/15 16:24:46;;;;;;;28.08;19.95;;;17.00;99.90;;;;;;7323429;32;20763;-60
2023/05/15 16:28:49;;;;;;;29.65;20.15;;;17.00;99.90;;;;;;7329469;32;20270;-58
2023/05/15 16:32:51;;;;;;;24.08;17.62;;;16.90;99.90;;;;;;7330684;32;20134;-57
2023/05/15 16:36:53;;;;;;;22.15;17.02;;;17.00;99.90;;;;;;7318514;32;20127;-58
2023/05/15 16:40:54;;;;;;;25.02;17.80;;;17.10;99.90;;;;;;7318506;32;20188;-58
2023/05/15 16:44:56;;;;;;;21.73;16.12;;;17.20;99.90;;;;;;7317822;32;20265;-58
2023/05/15 16:48:58;;;;;;;21.55;16.48;;;17.00;99.90;;;;;;7316798;32;20186;-58
2023/05/15 16:53:00;;;;;;;20.90;16.55;;;16.90;99.90;;;;;;7333281;32;20095;-61
2023/05/15 16:57:02;;;;;;;23.20;16.50;;;16.80;99.90;;;;;;7317611;32;20258;-58
2023/05/15 17:01:04;;;;;;;22.70;17.70;;;16.70;99.90;;;;;;7313135;32;20297;-58
2023/05/15 17:05:09;;;;;;;24.95;18.52;;;16.80;99.90;;;;;;7326481;32;20112;-57
2023/05/15 17:09:11;;;;;;;24.30;18.48;;;16.60;99.90;;;;;;7325591;32;20197;-58
2023/05/15 17:13:13;;;;;;;26.05;19.62;;;16.50;99.90;;;;;;7324870;32;20120;-63
2023/05/15 17:17:15;;;;;;;25.50;19.85;;;16.50;99.90;;;;;;7325524;32;20526;-58
2023/05/15 17:21:17;;;;;;;25.90;20.62;;;16.30;99.90;;;;;;7328429;32;20134;-58
2023/05/15 17:25:18;;;;;;;27.80;21.12;;;16.20;99.90;;;;;;7328393;32;20665;-58
2023/05/15 17:29:20;;;;;;;34.25;24.70;;;16.10;99.90;;;;;;7325336;32;20671;-58
2023/05/15 17:33:22;;;;;;;29.77;23.42;;;16.10;99.90;;;;;;7331918;32;20206;-57
2023/05/15 17:37:24;;;;;;;31.62;23.23;;;16.00;99.90;;;;;;7331575;32;20108;-57
2023/05/15 17:41:25;;;;;;;29.90;22.60;;;16.00;99.90;;;;;;7323114;32;20099;-64
2023/05/15 17:45:27;;;;;;;27.98;21.20;;;15.80;99.90;;;;;;7325764;32;20096;-61
2023/05/15 17:49:29;;;;;;;26.27;18.90;;;15.80;99.90;;;;;;7332430;32;20194;-57
2023/05/15 17:53:31;;;;;;;22.55;15.98;;;15.80;99.90;;;;;;7327950;32;20099;-57
2023/05/15 17:57:32;;;;;;;19.73;14.30;;;15.70;99.90;;;;;;7325439;32;20456;-58
2023/05/15 18:01:34;;;;;;;16.48;12.98;;;15.60;99.90;;;;;;7325540;32;20229;-61
2023/05/15 18:05:36;;;;;;;16.08;12.23;;;15.50;99.90;;;;;;7326414;32;20134;-57
2023/05/15 18:09:38;;;;;;;18.23;13.25;;;15.50;99.90;;;;;;7324089;32;20632;-57
2023/05/15 18:13:40;;;;;;;17.67;12.02;;;15.30;99.90;;;;;;7321721;32;20195;-57
2023/05/15 18:17:41;;;;;;;16.37;11.75;;;15.00;99.90;;;;;;7327104;32;20171;-57
2023/05/15 18:21:43;;;;;;;18.65;13.35;;;14.60;99.90;;;;;;7309382;32;22032;-56
2023/05/15 18:25:45;;;;;;;20.37;15.63;;;14.10;99.90;;;;;;7324276;32;20186;-57
2023/05/15 18:29:48;;;;;;;22.17;16.08;;;13.90;99.90;;;;;;7324536;32;20854;-57
2023/05/15 18:33:50;;;;;;;22.10;15.70;;;13.70;99.90;;;;;;7324059;32;20126;-57
2023/05/15 18:37:51;;;;;;;21.02;16.50;;;13.60;99.90;;;;;;7314182;32;20632;-57
2023/05/15 18:41:54;;;;;;;22.98;15.77;;;13.50;99.90;;;;;;7313001;32;20282;-57
2023/05/15 18:45:55;;;;;;;20.50;16.90;;;13.50;99.90;;;;;;7326926;32;20099;-56
2023/05/15 18:49:57;;;;;;;19.75;16.80;;;13.50;99.90;;;;;;7329620;32;20191;-57
2023/05/15 18:53:59;;;;;;;25.25;17.15;;;13.40;99.90;;;;;;7333880;32;20273;-57
2023/05/15 18:58:00;;;;;;;26.33;18.05;;;13.40;99.90;;;;;;7327230;32;20214;-57
2023/05/15 19:02:02;;;;;;;21.37;13.88;;;13.40;99.90;;;;;;7332260;32;20132;-56
2023/05/15 19:06:05;;;;;;;22.23;13.15;;;13.20;99.90;;;;;;7328290;32;20172;-57
2023/05/15 19:10:07;;;;;;;21.92;13.15;;;13.20;99.90;;;;;;7328332;32;20139;-56
2023/05/15 19:14:14;;;;;;;19.85;12.68;;;13.10;99.90;;;;;;7328090;32;20256;-57
2023/05/15 19:18:16;;;;;;;17.67;12.77;;;13.10;99.90;;;;;;7313709;32;20145;-57
2023/05/15 19:22:18;;;;;;;15.70;10.73;;;13.00;99.90;;;;;;7310124;32;20165;-57
2023/05/15 19:26:20;;;;;;;17.65;10.73;;;12.90;99.90;;;;;;7326371;32;20240;-56
2023/05/15 19:30:22;;;;;;;21.27;11.60;;;12.80;99.90;;;;;;7301819;32;20210;-56
2023/05/15 19:34:24;;;;;;;16.80;10.88;;;12.80;99.90;;;;;;7327157;32;20122;-55
2023/05/15 19:38:25;;;;;;;14.10;10.38;;;12.80;99.90;;;;;;7329351;32;20115;-56
2023/05/15 19:42:27;;;;;;;19.08;11.10;;;12.70;99.90;;;;;;7325210;32;20129;-55
2023/05/15 19:46:29;;;;;;;18.25;11.25;;;12.70;99.90;;;;;;7330278;32;20254;-56
2023/05/15 19:50:31;;;;;;;15.18;10.48;;;12.60;99.90;;;;;;7329016;32;20193;-56
2023/05/15 19:54:34;;;;;;;21.42;11.52;;;12.50;99.90;;;;;;7324678;32;20115;-56
2023/05/15 19:58:35;;;;;;;15.13;10.30;;;12.50;99.90;;;;;;7321288;32;20775;-55
2023/05/15 20:02:39;;;;;;;20.73;11.23;;;12.50;99.90;;;;;;7308267;32;20100;-55
2023/05/15 20:06:41;;;;;;;19.25;11.15;;;12.50;99.90;;;;;;7319454;32;20975;-54
2023/05/15 20:10:48;;;;;;;17.67;11.43;;;12.50;99.90;;;;;;7321395;32;20124;-55
2023/05/15 20:14:51;;;;;;;16.90;10.70;;;12.50;99.90;;;;;;7318229;32;20107;-55
2023/05/15 20:18:53;;;;;;;16.85;10.43;;;12.30;99.90;;;;;;7318192;32;20100;-55
2023/05/15 20:22:56;;;;;;;15.95;9.90;;;12.30;99.90;;;;;;7311223;32;20211;-56
2023/05/15 20:26:57;;;;;;;12.60;9.23;;;12.40;99.90;;;;;;7327984;32;20237;-56
2023/05/15 20:31:00;;;;;;;13.70;9.07;;;12.40;99.90;;;;;;7334215;32;20273;-55
2023/05/15 20:35:02;;;;;;;16.42;8.90;;;12.30;99.90;;;;;;7327357;32;20528;-55